Aegean Pride — ELXK8 — position and weather

sailwx.info

Track history (hours):
 
Tides and Currents Weather Stations Pressure Air Temp Water Temp Dewpoint Dewpoint Depression Visibility Wind Speed Wind Dir Waves Ship Positions

Aegean Pride

Last reported at 2014-Dec-18 11:16 UTC. Time now 2014-Dec-18 15:25 UTC.
Position N 41°32' E 029°29'.

Length 243 m; draft 8.2 m.

Type: Ship. MMSI: 636011186.

Date/timePositionNaut miles runAvg speedWind from/ knotsBaromVisibWave heightAir tempDewpointWater temp
2014-Dec-18 11:16N 41°32' E 029°29'1112.7
2014-Dec-18 10:26N 41°24' E 029°20'2711.7
2014-Dec-18 08:07N 41°01' E 028°60'5 9.0
2014-Dec-18 07:32N 40°56' E 028°59'9 9.3
2014-Dec-18 06:32N 40°48' E 028°55'7 7.7
2014-Dec-18 05:33N 40°40' E 028°55'2 1.5
2014-Dec-18 04:33N 40°41' E 028°53'1 1.2
2014-Dec-18 03:33N 40°42' E 028°52'1 1.0
2014-Dec-18 02:33N 40°42' E 028°51'1 0.9
2014-Dec-18 01:33N 40°43' E 028°50'1 0.6
2014-Dec-18 00:33N 40°43' E 028°49'1 0.8
2014-Dec-17 23:31N 40°44' E 028°49'1 1.0
2014-Dec-17 22:33N 40°45' E 028°49'1 0.7
2014-Dec-17 21:32N 40°45' E 028°49'4 4.4
2014-Dec-17 20:33N 40°41' E 028°51'2 1.9
2014-Dec-17 19:33N 40°43' E 028°51'2 1.7
2014-Dec-17 18:33N 40°45' E 028°52'2 1.5
2014-Dec-17 17:32N 40°46' E 028°52'2 1.6
2014-Dec-17 16:28N 40°48' E 028°53'2 1.7
2014-Dec-17 15:32N 40°49' E 028°54'2 2.4
2014-Dec-17 14:29N 40°50' E 028°57'5 5.6
2014-Dec-17 13:33N 40°50' E 029°04'7 6.3
2014-Dec-17 12:29N 40°50' E 029°13'0 0.1
2014-Dec-17 11:29N 40°50' E 029°13'0 0.0
2014-Dec-17 10:29N 40°50' E 029°13'0 0.0
2014-Dec-17 09:29N 40°50' E 029°13'0 0.0
2014-Dec-17 08:17N 40°50' E 029°13'0 0.0
2014-Dec-17 07:29N 40°50' E 029°13'0 0.0
2014-Dec-17 06:23N 40°50' E 029°13'0 0.1
2014-Dec-17 05:29N 40°50' E 029°13'0 0.0
2014-Dec-17 04:29N 40°50' E 029°13'0 0.0
2014-Dec-17 03:23N 40°50' E 029°13'0 0.0
2014-Dec-17 02:29N 40°50' E 029°13'0 0.0
2014-Dec-17 01:29N 40°50' E 029°13'0 0.0
2014-Dec-17 00:14N 40°50' E 029°13'0 0.0
2014-Dec-16 23:32N 40°50' E 029°13'0 0.0
2014-Dec-16 22:32N 40°50' E 029°13'0 0.0
2014-Dec-16 21:32N 40°50' E 029°13'0 0.0
2014-Dec-16 20:32N 40°50' E 029°13'0 0.0
2014-Dec-16 19:32N 40°50' E 029°13'0 0.0
2014-Dec-16 18:20N 40°50' E 029°13'0 0.0
2014-Dec-16 17:32N 40°50' E 029°13'0 0.0
2014-Dec-16 16:32N 40°50' E 029°13'0 0.0
2014-Dec-16 15:32N 40°50' E 029°13'0 0.0
2014-Dec-16 14:26N 40°50' E 029°13'  
Track history (hours):
 
Tides and Currents Weather Stations Pressure Air Temp Water Temp Dewpoint Dewpoint Depression Visibility Wind Speed Wind Dir Waves Ship Positions

Aegean Pride

Last reported at 2014-Dec-18 11:16 UTC. Time now 2014-Dec-18 15:25 UTC.
Position N 41°32' E 029°29'.

Length 243 m; draft 8.2 m.

Type: Ship. MMSI: 636011186.

Date/timePositionNaut miles runAvg speedWind from/ knotsBaromVisibWave heightAir tempDewpointWater temp
2014-Dec-18 11:16N 41°32' E 029°29'1112.7
2014-Dec-18 10:26N 41°24' E 029°20'2711.7
2014-Dec-18 08:07N 41°01' E 028°60'5 9.0
2014-Dec-18 07:32N 40°56' E 028°59'9 9.3
2014-Dec-18 06:32N 40°48' E 028°55'7 7.7
2014-Dec-18 05:33N 40°40' E 028°55'2 1.5
2014-Dec-18 04:33N 40°41' E 028°53'1 1.2
2014-Dec-18 03:33N 40°42' E 028°52'1 1.0
2014-Dec-18 02:33N 40°42' E 028°51'1 0.9
2014-Dec-18 01:33N 40°43' E 028°50'1 0.6
2014-Dec-18 00:33N 40°43' E 028°49'1 0.8
2014-Dec-17 23:31N 40°44' E 028°49'1 1.0
2014-Dec-17 22:33N 40°45' E 028°49'1 0.7
2014-Dec-17 21:32N 40°45' E 028°49'4 4.4
2014-Dec-17 20:33N 40°41' E 028°51'2 1.9
2014-Dec-17 19:33N 40°43' E 028°51'2 1.7
2014-Dec-17 18:33N 40°45' E 028°52'2 1.5
2014-Dec-17 17:32N 40°46' E 028°52'2 1.6
2014-Dec-17 16:28N 40°48' E 028°53'2 1.7
2014-Dec-17 15:32N 40°49' E 028°54'2 2.4
2014-Dec-17 14:29N 40°50' E 028°57'5 5.6
2014-Dec-17 13:33N 40°50' E 029°04'7 6.3
2014-Dec-17 12:29N 40°50' E 029°13'0 0.1
2014-Dec-17 11:29N 40°50' E 029°13'0 0.0
2014-Dec-17 10:29N 40°50' E 029°13'0 0.0
2014-Dec-17 09:29N 40°50' E 029°13'0 0.0
2014-Dec-17 08:17N 40°50' E 029°13'0 0.0
2014-Dec-17 07:29N 40°50' E 029°13'0 0.0
2014-Dec-17 06:23N 40°50' E 029°13'0 0.1
2014-Dec-17 05:29N 40°50' E 029°13'0 0.0
2014-Dec-17 04:29N 40°50' E 029°13'0 0.0
2014-Dec-17 03:23N 40°50' E 029°13'0 0.0
2014-Dec-17 02:29N 40°50' E 029°13'0 0.0
2014-Dec-17 01:29N 40°50' E 029°13'0 0.0
2014-Dec-17 00:14N 40°50' E 029°13'0 0.0
2014-Dec-16 23:32N 40°50' E 029°13'0 0.0
2014-Dec-16 22:32N 40°50' E 029°13'0 0.0
2014-Dec-16 21:32N 40°50' E 029°13'0 0.0
2014-Dec-16 20:32N 40°50' E 029°13'0 0.0
2014-Dec-16 19:32N 40°50' E 029°13'0 0.0
2014-Dec-16 18:20N 40°50' E 029°13'0 0.0
2014-Dec-16 17:32N 40°50' E 029°13'0 0.0
2014-Dec-16 16:32N 40°50' E 029°13'0 0.0
2014-Dec-16 15:32N 40°50' E 029°13'0 0.0
2014-Dec-16 14:26N 40°50' E 029°13'  

Dump ship's entire track history